sensor_id;sensor_type;location;lat;lon;timestamp;pressure;altitude;pressure_sealevel;temperature;humidity
27232;BME280;61835;50.196;6.454;2022-08-01T00:02:06;96556.13;;;23.98;100.00
27232;BME280;61835;50.196;6.454;2022-08-01T00:04:31;96541.50;;;23.79;100.00
27232;BME280;61835;50.196;6.454;2022-08-01T00:06:57;96550.72;;;23.98;100.00
27232;BME280;61835;50.196;6.454;2022-08-01T00:09:22;96550.09;;;24.03;100.00
27232;BME280;61835;50.196;6.454;2022-08-01T00:11:47;96546.16;;;24.05;100.00
27232;BME280;61835;50.196;6.454;2022-08-01T00:14:13;96550.38;;;24.27;100.00
27232;BME280;61835;50.196;6.454;2022-08-01T00:16:38;96544.31;;;24.25;100.00
27232;BME280;61835;50.196;6.454;2022-08-01T00:19:04;96541.63;;;24.25;100.00
27232;BME280;61835;50.196;6.454;2022-08-01T00:21:30;96541.63;;;24.25;100.00
27232;BME280;61835;50.196;6.454;2022-08-01T00:23:55;96547.25;;;24.43;100.00
27232;BME280;61835;50.196;6.454;2022-08-01T00:26:20;96537.47;;;24.56;100.00
27232;BME280;61835;50.196;6.454;2022-08-01T00:28:46;96544.34;;;24.38;100.00
27232;BME280;61835;50.196;6.454;2022-08-01T00:31:11;96542.06;;;24.35;100.00
27232;BME280;61835;50.196;6.454;2022-08-01T00:33:37;96533.63;;;24.04;100.00
27232;BME280;61835;50.196;6.454;2022-08-01T00:36:02;96543.00;;;24.02;100.00
27232;BME280;61835;50.196;6.454;2022-08-01T00:38:28;96538.78;;;23.86;100.00
27232;BME280;61835;50.196;6.454;2022-08-01T00:40:53;96535.88;;;23.81;100.00
27232;BME280;61835;50.196;6.454;2022-08-01T00:43:19;96535.41;;;23.71;100.00
27232;BME280;61835;50.196;6.454;2022-08-01T00:45:44;96534.19;;;23.80;100.00
27232;BME280;61835;50.196;6.454;2022-08-01T00:48:09;96530.25;;;23.89;100.00
27232;BME280;61835;50.196;6.454;2022-08-01T00:50:35;96536.94;;;23.93;100.00
27232;BME280;61835;50.196;6.454;2022-08-01T00:53:01;96532.34;;;23.87;100.00
27232;BME280;61835;50.196;6.454;2022-08-01T00:55:28;96541.53;;;23.93;100.00
27232;BME280;61835;50.196;6.454;2022-08-01T00:57:55;96530.25;;;23.89;100.00
27232;BME280;61835;50.196;6.454;2022-08-01T01:00:21;96535.91;;;23.87;100.00
27232;BME280;61835;50.196;6.454;2022-08-01T01:02:47;96532.34;;;23.87;100.00
27232;BME280;61835;50.196;6.454;2022-08-01T01:05:12;96533.19;;;23.87;100.00
27232;BME280;61835;50.196;6.454;2022-08-01T01:07:49;96531.53;;;24.06;100.00
27232;BME280;61835;50.196;6.454;2022-08-01T01:10:35;96526.94;;;24.07;100.00
27232;BME280;61835;50.196;6.454;2022-08-01T01:13:10;96522.00;;;24.17;100.00
27232;BME280;61835;50.196;6.454;2022-08-01T01:18:12;96524.84;;;23.89;100.00
27232;BME280;61835;50.196;6.454;2022-08-01T01:20:42;96522.38;;;23.94;100.00
27232;BME280;61835;50.196;6.454;2022-08-01T01:26:25;96521.69;;;23.72;100.00
27232;BME280;61835;50.196;6.454;2022-08-01T01:29:00;96521.06;;;23.77;100.00
27232;BME280;61835;50.196;6.454;2022-08-01T01:31:27;96528.53;;;23.62;100.00
27232;BME280;61835;50.196;6.454;2022-08-01T01:33:55;96519.84;;;23.79;100.00
27232;BME280;61835;50.196;6.454;2022-08-01T01:36:24;96517.59;;;24.03;100.00
27232;BME280;61835;50.196;6.454;2022-08-01T01:38:52;96514.06;;;24.15;100.00
27232;BME280;61835;50.196;6.454;2022-08-01T01:41:19;96512.22;;;24.22;100.00
27232;BME280;61835;50.196;6.454;2022-08-01T01:43:46;96515.53;;;24.24;100.00
27232;BME280;61835;50.196;6.454;2022-08-01T01:46:17;96516.09;;;24.07;100.00
27232;BME280;61835;50.196;6.454;2022-08-01T01:48:45;96521.72;;;23.79;100.00
27232;BME280;61835;50.196;6.454;2022-08-01T01:51:12;96516.28;;;23.79;100.00
27232;BME280;61835;50.196;6.454;2022-08-01T01:53:40;96525.56;;;23.50;100.00
27232;BME280;61835;50.196;6.454;2022-08-01T01:56:06;96525.44;;;23.30;100.00
27232;BME280;61835;50.196;6.454;2022-08-01T01:58:34;96527.31;;;23.30;100.00
27232;BME280;61835;50.196;6.454;2022-08-01T02:01:03;96525.63;;;23.22;100.00
27232;BME280;61835;50.196;6.454;2022-08-01T02:03:29;96524.63;;;23.30;100.00
27232;BME280;61835;50.196;6.454;2022-08-01T02:05:56;96516.88;;;23.20;100.00
27232;BME280;61835;50.196;6.454;2022-08-01T02:08:23;96519.38;;;23.22;100.00
27232;BME280;61835;50.196;6.454;2022-08-01T02:10:50;96518.75;;;23.26;100.00
27232;BME280;61835;50.196;6.454;2022-08-01T02:13:37;96509.66;;;23.34;100.00
27232;BME280;61835;50.196;6.454;2022-08-01T02:16:04;96507.56;;;23.36;100.00
27232;BME280;61835;50.196;6.454;2022-08-01T02:18:30;96507.22;;;23.46;100.00
27232;BME280;61835;50.196;6.454;2022-08-01T02:20:57;96508.13;;;23.72;100.00
27232;BME280;61835;50.196;6.454;2022-08-01T02:23:27;96498.56;;;23.76;100.00
27232;BME280;61835;50.196;6.454;2022-08-01T02:25:55;96507.53;;;23.83;100.00
27232;BME280;61835;50.196;6.454;2022-08-01T02:28:25;96501.53;;;24.08;100.00
27232;BME280;61835;50.196;6.454;2022-08-01T02:30:57;96501.56;;;24.40;100.00
27232;BME280;61835;50.196;6.454;2022-08-01T02:33:33;96495.09;;;24.48;100.00
27232;BME280;61835;50.196;6.454;2022-08-01T02:36:03;96493.63;;;24.59;100.00
27232;BME280;61835;50.196;6.454;2022-08-01T02:38:31;96503.22;;;24.55;100.00
27232;BME280;61835;50.196;6.454;2022-08-01T02:41:00;96500.75;;;24.47;100.00
27232;BME280;61835;50.196;6.454;2022-08-01T02:43:29;96500.31;;;24.36;100.00
27232;BME280;61835;50.196;6.454;2022-08-01T02:46:00;96503.66;;;24.52;100.00
27232;BME280;61835;50.196;6.454;2022-08-01T02:48:28;96505.53;;;24.18;100.00
27232;BME280;61835;50.196;6.454;2022-08-01T02:50:58;96500.09;;;24.25;100.00
27232;BME280;61835;50.196;6.454;2022-08-01T02:53:26;96502.81;;;24.18;100.00
27232;BME280;61835;50.196;6.454;2022-08-01T02:55:53;96494.69;;;24.38;100.00
27232;BME280;61835;50.196;6.454;2022-08-01T02:58:20;96490.31;;;24.43;100.00
27232;BME280;61835;50.196;6.454;2022-08-01T03:00:49;96500.72;;;24.33;100.00
27232;BME280;61835;50.196;6.454;2022-08-01T03:03:15;96500.91;;;24.06;100.00
27232;BME280;61835;50.196;6.454;2022-08-01T03:05:43;96498.38;;;23.98;100.00
27232;BME280;61835;50.196;6.454;2022-08-01T03:08:10;96496.97;;;24.21;100.00
27232;BME280;61835;50.196;6.454;2022-08-01T03:10:38;96492.59;;;24.20;100.00
27232;BME280;61835;50.196;6.454;2022-08-01T03:13:06;96491.78;;;24.26;100.00
27232;BME280;61835;50.196;6.454;2022-08-01T03:15:35;96489.22;;;23.99;100.00
27232;BME280;61835;50.196;6.454;2022-08-01T03:18:03;96492.19;;;24.23;100.00
27232;BME280;61835;50.196;6.454;2022-08-01T03:20:32;96477.97;;;24.54;100.00
27232;BME280;61835;50.196;6.454;2022-08-01T03:23:00;96477.97;;;24.48;100.00
27232;BME280;61835;50.196;6.454;2022-08-01T03:25:27;96485.28;;;24.54;100.00
27232;BME280;61835;50.196;6.454;2022-08-01T03:27:56;96480.50;;;24.36;100.00
27232;BME280;61835;50.196;6.454;2022-08-01T03:30:23;96485.31;;;24.47;100.00
27232;BME280;61835;50.196;6.454;2022-08-01T03:32:49;96483.44;;;24.41;100.00
27232;BME280;61835;50.196;6.454;2022-08-01T03:35:15;96495.31;;;24.14;100.00
27232;BME280;61835;50.196;6.454;2022-08-01T03:37:48;96487.19;;;24.53;100.00
27232;BME280;61835;50.196;6.454;2022-08-01T03:40:31;96488.22;;;24.46;100.00
27232;BME280;61835;50.196;6.454;2022-08-01T03:43:04;96489.47;;;24.50;100.00
27232;BME280;61835;50.196;6.454;2022-08-01T03:45:35;96493.84;;;24.51;100.00
27232;BME280;61835;50.196;6.454;2022-08-01T03:48:09;96498.03;;;24.40;100.00
27232;BME280;61835;50.196;6.454;2022-08-01T03:50:36;96499.47;;;24.49;100.00
27232;BME280;61835;50.196;6.454;2022-08-01T03:53:06;96499.47;;;24.56;100.00
27232;BME280;61835;50.196;6.454;2022-08-01T03:55:32;96492.19;;;24.36;100.00
27232;BME280;61835;50.196;6.454;2022-08-01T03:57:59;96493.66;;;24.32;100.00
27232;BME280;61835;50.196;6.454;2022-08-01T04:00:26;96499.69;;;24.15;100.00
27232;BME280;61835;50.196;6.454;2022-08-01T04:02:52;96504.34;;;23.60;100.00
27232;BME280;61835;50.196;6.454;2022-08-01T04:05:18;96498.81;;;23.88;100.00
27232;BME280;61835;50.196;6.454;2022-08-01T04:07:48;96508.00;;;24.00;100.00
27232;BME280;61835;50.196;6.454;2022-08-01T04:10:23;96498.38;;;24.04;100.00
27232;BME280;61835;50.196;6.454;2022-08-01T04:12:49;96501.91;;;23.85;100.00
27232;BME280;61835;50.196;6.454;2022-08-01T04:15:14;96507.75;;;23.95;100.00
27232;BME280;61835;50.196;6.454;2022-08-01T04:17:40;96495.47;;;23.99;100.00
27232;BME280;61835;50.196;6.454;2022-08-01T04:20:06;96508.66;;;24.15;100.00
27232;BME280;61835;50.196;6.454;2022-08-01T04:22:31;96508.03;;;24.39;100.00
27232;BME280;61835;50.196;6.454;2022-08-01T04:24:58;96504.06;;;24.29;100.00
27232;BME280;61835;50.196;6.454;2022-08-01T04:27:28;96508.03;;;24.39;100.00
27232;BME280;61835;50.196;6.454;2022-08-01T04:29:57;96508.25;;;24.31;100.00
27232;BME280;61835;50.196;6.454;2022-08-01T04:32:25;96504.69;;;24.24;100.00
27232;BME280;61835;50.196;6.454;2022-08-01T04:34:54;96514.06;;;24.22;100.00
27232;BME280;61835;50.196;6.454;2022-08-01T04:37:23;96512.41;;;24.34;100.00
27232;BME280;61835;50.196;6.454;2022-08-01T04:39:52;96521.38;;;24.34;100.00
27232;BME280;61835;50.196;6.454;2022-08-01T04:42:18;96520.78;;;24.32;100.00
27232;BME280;61835;50.196;6.454;2022-08-01T04:44:44;96528.50;;;24.35;100.00
27232;BME280;61835;50.196;6.454;2022-08-01T04:47:10;96526.41;;;24.44;100.00
27232;BME280;61835;50.196;6.454;2022-08-01T04:49:37;96529.09;;;24.51;100.00
27232;BME280;61835;50.196;6.454;2022-08-01T04:52:03;96527.25;;;24.38;100.00
27232;BME280;61835;50.196;6.454;2022-08-01T04:54:30;96533.25;;;24.27;100.00
27232;BME280;61835;50.196;6.454;2022-08-01T04:56:59;96547.38;;;24.09;100.00
27232;BME280;61835;50.196;6.454;2022-08-01T04:59:31;96541.13;;;23.96;100.00
27232;BME280;61835;50.196;6.454;2022-08-01T05:02:08;96537.19;;;24.05;100.00
27232;BME280;61835;50.196;6.454;2022-08-01T05:04:35;96543.84;;;24.02;100.00
27232;BME280;61835;50.196;6.454;2022-08-01T05:07:01;96540.72;;;24.05;100.00
27232;BME280;61835;50.196;6.454;2022-08-01T05:09:26;96543.69;;;24.17;100.00
27232;BME280;61835;50.196;6.454;2022-08-01T05:11:51;96549.97;;;24.24;100.00
27232;BME280;61835;50.196;6.454;2022-08-01T05:14:17;96543.28;;;24.46;100.00
27232;BME280;61835;50.196;6.454;2022-08-01T05:16:42;96543.06;;;24.54;100.00
27232;BME280;61835;50.196;6.454;2022-08-01T05:19:08;96544.53;;;24.76;100.00
27232;BME280;61835;50.196;6.454;2022-08-01T05:21:34;96549.78;;;24.91;100.00
27232;BME280;61835;50.196;6.454;2022-08-01T05:24:00;96549.53;;;24.99;100.00
27232;BME280;61835;50.196;6.454;2022-08-01T05:26:25;96555.81;;;24.93;100.00
27232;BME280;61835;50.196;6.454;2022-08-01T05:28:51;96554.59;;;24.82;100.00
27232;BME280;61835;50.196;6.454;2022-08-01T05:31:16;96550.56;;;24.98;100.00
27232;BME280;61835;50.196;6.454;2022-08-01T05:33:41;96544.88;;;25.19;100.00
27232;BME280;61835;50.196;6.454;2022-08-01T05:36:07;96539.03;;;25.29;100.00
27232;BME280;61835;50.196;6.454;2022-08-01T05:38:32;96544.44;;;25.35;100.00
27232;BME280;61835;50.196;6.454;2022-08-01T05:40:58;96545.47;;;25.34;100.00
27232;BME280;61835;50.196;6.454;2022-08-01T05:43:23;96543.63;;;25.28;100.00
27232;BME280;61835;50.196;6.454;2022-08-01T05:45:49;96536.47;;;25.40;100.00
27232;BME280;61835;50.196;6.454;2022-08-01T05:48:14;96535.84;;;25.38;100.00
27232;BME280;61835;50.196;6.454;2022-08-01T05:50:40;96534.34;;;25.56;100.00
27232;BME280;61835;50.196;6.454;2022-08-01T05:53:05;96540.81;;;25.55;100.00
27232;BME280;61835;50.196;6.454;2022-08-01T05:55:30;96547.97;;;25.49;100.00
27232;BME280;61835;50.196;6.454;2022-08-01T05:57:56;96549.81;;;25.55;100.00
27232;BME280;61835;50.196;6.454;2022-08-01T06:00:21;96555.16;;;25.11;100.00
27232;BME280;61835;50.196;6.454;2022-08-01T06:02:47;96548.25;;;25.15;100.00
27232;BME280;61835;50.196;6.454;2022-08-01T06:05:12;96556.56;;;25.33;100.00
27232;BME280;61835;50.196;6.454;2022-08-01T06:07:37;96552.75;;;25.47;100.00
27232;BME280;61835;50.196;6.454;2022-08-01T06:10:05;96559.13;;;25.08;100.00
27232;BME280;61835;50.196;6.454;2022-08-01T06:12:34;96553.91;;;25.07;100.00
27232;BME280;61835;50.196;6.454;2022-08-01T06:15:00;96566.84;;;24.98;100.00
27232;BME280;61835;50.196;6.454;2022-08-01T06:17:25;96561.16;;;25.26;100.00
27232;BME280;61835;50.196;6.454;2022-08-01T06:19:51;96565.16;;;25.23;100.00
27232;BME280;61835;50.196;6.454;2022-08-01T06:22:16;96557.34;;;25.46;100.00
27232;BME280;61835;50.196;6.454;2022-08-01T06:24:41;96558.88;;;25.29;100.00
27232;BME280;61835;50.196;6.454;2022-08-01T06:27:07;96557.94;;;25.62;100.00
27232;BME280;61835;50.196;6.454;2022-08-01T06:29:32;96558.22;;;25.27;100.00
27232;BME280;61835;50.196;6.454;2022-08-01T06:31:58;96555.31;;;25.22;100.00
27232;BME280;61835;50.196;6.454;2022-08-01T06:34:23;96551.16;;;25.20;100.00
27232;BME280;61835;50.196;6.454;2022-08-01T06:36:49;96556.56;;;25.33;100.00
27232;BME280;61835;50.196;6.454;2022-08-01T06:39:14;96553.88;;;25.13;100.00
27232;BME280;61835;50.196;6.454;2022-08-01T06:41:40;96561.22;;;25.06;100.00
27232;BME280;61835;50.196;6.454;2022-08-01T06:44:07;96561.16;;;25.26;100.00
27232;BME280;61835;50.196;6.454;2022-08-01T06:46:32;96552.19;;;25.25;100.00
27232;BME280;61835;50.196;6.454;2022-08-01T06:48:58;96561.25;;;24.93;100.00
27232;BME280;61835;50.196;6.454;2022-08-01T06:51:23;96566.44;;;25.14;100.00
27232;BME280;61835;50.196;6.454;2022-08-01T06:53:49;96574.06;;;25.43;100.00
27232;BME280;61835;50.196;6.454;2022-08-01T06:56:14;96568.84;;;25.48;100.00
27232;BME280;61835;50.196;6.454;2022-08-01T06:58:39;96582.09;;;25.06;100.00
27232;BME280;61835;50.196;6.454;2022-08-01T07:01:05;96576.69;;;24.99;100.00
27232;BME280;61835;50.196;6.454;2022-08-01T07:03:32;96575.75;;;25.44;100.00
27232;BME280;61835;50.196;6.454;2022-08-01T07:05:58;96571.59;;;25.35;100.00
27232;BME280;61835;50.196;6.454;2022-08-01T07:08:23;96578.53;;;25.18;100.00
27232;BME280;61835;50.196;6.454;2022-08-01T07:10:49;96580.38;;;25.31;100.00
27232;BME280;61835;50.196;6.454;2022-08-01T07:13:14;96582.28;;;25.17;100.00
27232;BME280;61835;50.196;6.454;2022-08-01T07:15:45;96576.25;;;25.09;100.00
27232;BME280;61835;50.196;6.454;2022-08-01T07:18:11;96583.59;;;24.82;100.00
27232;BME280;61835;50.196;6.454;2022-08-01T07:20:37;96594.63;;;24.74;100.00
27232;BME280;61835;50.196;6.454;2022-08-01T07:23:02;96585.66;;;24.80;100.00
27232;BME280;61835;50.196;6.454;2022-08-01T07:25:27;96587.53;;;24.79;100.00
27232;BME280;61835;50.196;6.454;2022-08-01T07:27:53;96578.97;;;25.09;100.00
27232;BME280;61835;50.196;6.454;2022-08-01T07:30:18;96582.06;;;25.25;100.00
27232;BME280;61835;50.196;6.454;2022-08-01T07:32:44;96583.25;;;25.42;100.00
27232;BME280;61835;50.196;6.454;2022-08-01T07:35:09;96589.31;;;25.58;100.00
27232;BME280;61835;50.196;6.454;2022-08-01T07:37:35;96576.41;;;25.91;100.00
27232;BME280;61835;50.196;6.454;2022-08-01T07:40:00;96579.94;;;25.98;100.00
27232;BME280;61835;50.196;6.454;2022-08-01T07:42:26;96572.44;;;26.31;100.00
27232;BME280;61835;50.196;6.454;2022-08-01T07:44:52;96574.66;;;26.41;100.00
27232;BME280;61835;50.196;6.454;2022-08-01T07:47:24;96583.84;;;26.46;100.00
27232;BME280;61835;50.196;6.454;2022-08-01T07:49:49;96587.84;;;26.44;100.00
27232;BME280;61835;50.196;6.454;2022-08-01T07:52:15;96588.31;;;26.66;100.00
27232;BME280;61835;50.196;6.454;2022-08-01T07:54:40;96584.63;;;26.78;100.00
27232;BME280;61835;50.196;6.454;2022-08-01T07:57:06;96592.16;;;26.83;100.00
27232;BME280;61835;50.196;6.454;2022-08-01T07:59:32;96591.66;;;26.92;100.00
27232;BME280;61835;50.196;6.454;2022-08-01T08:01:58;96591.34;;;26.82;100.00
27232;BME280;61835;50.196;6.454;2022-08-01T08:04:24;96583.81;;;26.78;100.00
27232;BME280;61835;50.196;6.454;2022-08-01T08:06:49;96580.63;;;26.56;100.00
27232;BME280;61835;50.196;6.454;2022-08-01T08:09:15;96592.50;;;26.61;100.00
27232;BME280;61835;50.196;6.454;2022-08-01T08:11:45;96590.16;;;26.40;100.00
27232;BME280;61835;50.196;6.454;2022-08-01T08:14:10;96590.06;;;26.85;100.00
27232;BME280;61835;50.196;6.454;2022-08-01T08:16:36;96584.50;;;26.98;100.00
27232;BME280;61835;50.196;6.454;2022-08-01T08:19:01;96590.34;;;27.20;100.00
27232;BME280;61835;50.196;6.454;2022-08-01T08:21:27;96583.34;;;27.30;100.00
27232;BME280;61835;50.196;6.454;2022-08-01T08:23:53;96589.63;;;27.31;100.00
27232;BME280;61835;50.196;6.454;2022-08-01T08:26:37;96583.72;;;27.52;100.00
27232;BME280;61835;50.196;6.454;2022-08-01T08:29:03;96590.75;;;28.14;100.00
27232;BME280;61835;50.196;6.454;2022-08-01T08:31:28;96590.84;;;28.37;100.00
27232;BME280;61835;50.196;6.454;2022-08-01T08:33:54;96589.56;;;28.93;100.00
27232;BME280;61835;50.196;6.454;2022-08-01T08:36:19;96589.31;;;28.41;100.00
27232;BME280;61835;50.196;6.454;2022-08-01T08:38:45;96595.72;;;28.76;100.00
27232;BME280;61835;50.196;6.454;2022-08-01T08:41:10;96586.00;;;29.04;100.00
27232;BME280;61835;50.196;6.454;2022-08-01T08:43:36;96591.56;;;28.74;100.00
27232;BME280;61835;50.196;6.454;2022-08-01T08:46:01;96598.78;;;28.09;100.00
27232;BME280;61835;50.196;6.454;2022-08-01T08:48:28;96599.97;;;28.31;100.00
27232;BME280;61835;50.196;6.454;2022-08-01T08:50:55;96596.13;;;28.20;100.00
27232;BME280;61835;50.196;6.454;2022-08-01T08:53:22;96597.75;;;27.55;100.00
27232;BME280;61835;50.196;6.454;2022-08-01T08:55:48;96597.41;;;27.27;100.00
27232;BME280;61835;50.196;6.454;2022-08-01T08:58:15;96599.06;;;26.79;100.00
27232;BME280;61835;50.196;6.454;2022-08-01T09:00:42;96606.44;;;26.47;100.00
27232;BME280;61835;50.196;6.454;2022-08-01T09:03:08;96599.19;;;26.66;100.00
27232;BME280;61835;50.196;6.454;2022-08-01T09:05:33;96598.91;;;27.23;100.00
27232;BME280;61835;50.196;6.454;2022-08-01T09:07:59;96596.47;;;27.15;100.00
27232;BME280;61835;50.196;6.454;2022-08-01T09:10:25;96600.28;;;27.32;100.00
27232;BME280;61835;50.196;6.454;2022-08-01T09:18:04;96599.56;;;27.43;100.00
27232;BME280;61835;50.196;6.454;2022-08-01T09:20:30;96604.78;;;27.45;100.00
27232;BME280;61835;50.196;6.454;2022-08-01T09:22:55;96602.22;;;28.04;100.00
27232;BME280;61835;50.196;6.454;2022-08-01T09:25:20;96604.28;;;28.50;100.00
27232;BME280;61835;50.196;6.454;2022-08-01T09:27:46;96615.41;;;28.07;100.00
27232;BME280;61835;50.196;6.454;2022-08-01T09:30:16;96610.78;;;27.90;100.00
27232;BME280;61835;50.196;6.454;2022-08-01T09:33:03;96617.56;;;28.17;100.00
27232;BME280;61835;50.196;6.454;2022-08-01T09:35:33;96619.38;;;28.23;100.00
27232;BME280;61835;50.196;6.454;2022-08-01T09:38:13;96621.19;;;28.29;100.00
27232;BME280;61835;50.196;6.454;2022-08-01T09:40:53;96623.50;;;27.59;100.00
27232;BME280;61835;50.196;6.454;2022-08-01T09:43:21;96626.19;;;27.16;100.00
27232;BME280;61835;50.196;6.454;2022-08-01T09:45:47;96627.97;;;27.04;100.00
27232;BME280;61835;50.196;6.454;2022-08-01T09:48:12;96630.78;;;27.41;100.00
27232;BME280;61835;50.196;6.454;2022-08-01T09:50:39;96631.34;;;27.49;100.00
27232;BME280;61835;50.196;6.454;2022-08-01T09:53:06;96626.91;;;27.73;100.00
27232;BME280;61835;50.196;6.454;2022-08-01T09:55:31;96625.78;;;28.29;100.00
27232;BME280;61835;50.196;6.454;2022-08-01T09:57:56;96633.06;;;27.87;100.00
27232;BME280;61835;50.196;6.454;2022-08-01T10:00:26;96625.06;;;28.21;100.00
27232;BME280;61835;50.196;6.454;2022-08-01T10:02:51;96617.19;;;28.73;100.00
27232;BME280;61835;50.196;6.454;2022-08-01T10:05:17;96616.84;;;28.69;100.00
27232;BME280;61835;50.196;6.454;2022-08-01T10:08:03;96620.16;;;28.42;100.00
27232;BME280;61835;50.196;6.454;2022-08-01T10:10:29;96613.06;;;28.82;100.00
27232;BME280;61835;50.196;6.454;2022-08-01T10:12:56;96611.59;;;28.38;100.00
27232;BME280;61835;50.196;6.454;2022-08-01T10:15:23;96614.53;;;28.96;100.00
27232;BME280;61835;50.196;6.454;2022-08-01T10:17:57;96608.94;;;29.14;100.00
27232;BME280;61835;50.196;6.454;2022-08-01T10:20:32;96597.75;;;29.85;100.00
27232;BME280;61835;50.196;6.454;2022-08-01T10:23:02;96609.66;;;29.21;100.00
27232;BME280;61835;50.196;6.454;2022-08-01T10:25:34;96611.94;;;29.48;100.00
27232;BME280;61835;50.196;6.454;2022-08-01T10:28:02;96603.72;;;29.13;100.00
27232;BME280;61835;50.196;6.454;2022-08-01T10:30:32;96606.19;;;29.03;100.00
27232;BME280;61835;50.196;6.454;2022-08-01T10:32:58;96609.75;;;29.15;100.00
27232;BME280;61835;50.196;6.454;2022-08-01T10:35:24;96593.09;;;28.82;100.00
27232;BME280;61835;50.196;6.454;2022-08-01T10:37:49;96600.50;;;28.81;100.00
27232;BME280;61835;50.196;6.454;2022-08-01T10:40:16;96598.38;;;29.18;100.00
27232;BME280;61835;50.196;6.454;2022-08-01T10:42:43;96595.53;;;29.13;100.00
27232;BME280;61835;50.196;6.454;2022-08-01T10:45:14;96601.19;;;28.88;100.00
27232;BME280;61835;50.196;6.454;2022-08-01T10:47:47;96597.69;;;28.28;100.00
27232;BME280;61835;50.196;6.454;2022-08-01T10:50:24;96603.09;;;28.88;100.00
27232;BME280;61835;50.196;6.454;2022-08-01T10:53:07;96595.16;;;29.09;100.00
27232;BME280;61835;50.196;6.454;2022-08-01T10:58:32;96576.84;;;31.64;74.32
27232;BME280;61835;50.196;6.454;2022-08-01T11:09:05;96601.59;;;30.53;93.64
27232;BME280;61835;50.196;6.454;2022-08-01T11:11:31;96592.34;;;31.04;83.81
27232;BME280;61835;50.196;6.454;2022-08-01T11:16:34;96593.41;;;32.39;73.23
27232;BME280;61835;50.196;6.454;2022-08-01T11:19:00;96588.81;;;32.18;70.69
27232;BME280;61835;50.196;6.454;2022-08-01T11:27:26;96588.31;;;31.44;76.11
27232;BME280;61835;50.196;6.454;2022-08-01T11:32:50;96594.78;;;30.88;89.46
27232;BME280;61835;50.196;6.454;2022-08-01T11:35:17;96591.97;;;30.67;88.55
27232;BME280;61835;50.196;6.454;2022-08-01T11:37:43;96600.03;;;30.73;86.28
27232;BME280;61835;50.196;6.454;2022-08-01T11:40:27;96589.59;;;31.04;83.01
27232;BME280;61835;50.196;6.454;2022-08-01T11:43:17;96583.59;;;32.22;71.62
27232;BME280;61835;50.196;6.454;2022-08-01T11:45:54;96586.28;;;32.92;68.19
27232;BME280;61835;50.196;6.454;2022-08-01T11:48:25;96582.78;;;33.33;63.70
27232;BME280;61835;50.196;6.454;2022-08-01T11:50:52;96571.06;;;34.05;57.13
27232;BME280;61835;50.196;6.454;2022-08-01T11:53:18;96577.00;;;34.49;55.53
27232;BME280;61835;50.196;6.454;2022-08-01T11:55:49;96575.38;;;34.53;54.84
27232;BME280;61835;50.196;6.454;2022-08-01T11:58:20;96573.66;;;33.28;59.05
27232;BME280;61835;50.196;6.454;2022-08-01T12:00:56;96579.19;;;33.33;60.04
27232;BME280;61835;50.196;6.454;2022-08-01T12:03:27;96582.47;;;32.66;63.82
27232;BME280;61835;50.196;6.454;2022-08-01T12:05:54;96583.25;;;32.13;64.18
27232;BME280;61835;50.196;6.454;2022-08-01T12:08:31;96579.44;;;32.41;64.36
27232;BME280;61835;50.196;6.454;2022-08-01T12:11:00;96577.25;;;32.16;68.78
27232;BME280;61835;50.196;6.454;2022-08-01T12:13:26;96585.72;;;31.93;72.54
27232;BME280;61835;50.196;6.454;2022-08-01T12:15:51;96580.41;;;31.86;73.80
27232;BME280;61835;50.196;6.454;2022-08-01T12:18:17;96577.03;;;31.41;74.27
27232;BME280;61835;50.196;6.454;2022-08-01T12:20:44;96585.47;;;31.18;77.17
27232;BME280;61835;50.196;6.454;2022-08-01T12:23:14;96579.72;;;30.13;89.04
27232;BME280;61835;50.196;6.454;2022-08-01T12:25:41;96590.72;;;28.85;100.00
27232;BME280;61835;50.196;6.454;2022-08-01T12:28:09;96592.06;;;28.94;100.00
27232;BME280;61835;50.196;6.454;2022-08-01T12:30:36;96584.72;;;29.29;100.00
27232;BME280;61835;50.196;6.454;2022-08-01T12:33:08;96575.41;;;30.17;91.85
27232;BME280;61835;50.196;6.454;2022-08-01T12:35:34;96582.66;;;30.51;90.05
27232;BME280;61835;50.196;6.454;2022-08-01T12:38:04;96579.19;;;31.56;77.15
27232;BME280;61835;50.196;6.454;2022-08-01T12:40:40;96573.66;;;31.72;73.33
27232;BME280;61835;50.196;6.454;2022-08-01T12:43:08;96582.66;;;30.51;86.15
27232;BME280;61835;50.196;6.454;2022-08-01T12:45:39;96582.44;;;31.36;81.32
27232;BME280;61835;50.196;6.454;2022-08-01T12:48:13;96571.25;;;31.97;77.94
27232;BME280;61835;50.196;6.454;2022-08-01T12:50:42;96579.00;;;33.07;66.36
27232;BME280;61835;50.196;6.454;2022-08-01T12:53:09;96577.50;;;32.95;62.66
27232;BME280;61835;50.196;6.454;2022-08-01T12:55:54;96592.25;;;31.48;83.23
27232;BME280;61835;50.196;6.454;2022-08-01T12:58:21;96602.31;;;29.57;100.00
27232;BME280;61835;50.196;6.454;2022-08-01T13:00:48;96608.94;;;28.61;100.00
27232;BME280;61835;50.196;6.454;2022-08-01T13:03:16;96613.41;;;28.14;100.00
27232;BME280;61835;50.196;6.454;2022-08-01T13:08:14;96612.47;;;28.80;100.00
27232;BME280;61835;50.196;6.454;2022-08-01T13:10:40;96617.25;;;28.55;100.00
27232;BME280;61835;50.196;6.454;2022-08-01T13:13:07;96614.41;;;28.02;100.00
27232;BME280;61835;50.196;6.454;2022-08-01T13:15:34;96628.13;;;27.59;100.00
27232;BME280;61835;50.196;6.454;2022-08-01T13:18:21;96624.94;;;27.19;100.00
27232;BME280;61835;50.196;6.454;2022-08-01T13:20:46;96618.66;;;27.61;100.00
27232;BME280;61835;50.196;6.454;2022-08-01T13:23:16;96611.91;;;27.82;100.00
27232;BME280;61835;50.196;6.454;2022-08-01T13:25:54;96612.94;;;28.17;100.00
27232;BME280;61835;50.196;6.454;2022-08-01T13:28:22;96618.97;;;28.67;100.00
27232;BME280;61835;50.196;6.454;2022-08-01T13:31:04;96624.91;;;28.46;100.00